createdAt,value
2018-12-30T00:02:23.976Z,0.70
2018-12-30T00:04:52.698Z,0.70
2018-12-30T00:07:21.438Z,0.80
2018-12-30T00:09:49.969Z,0.70
2018-12-30T00:12:18.698Z,0.70
2018-12-30T00:14:47.247Z,0.60
2018-12-30T00:17:15.767Z,0.60
2018-12-30T00:19:44.307Z,0.60
2018-12-30T00:22:12.819Z,0.60
2018-12-30T00:24:41.359Z,0.60
2018-12-30T00:27:09.873Z,0.60
2018-12-30T00:29:38.426Z,0.60
2018-12-30T00:32:06.960Z,1.10
2018-12-30T00:34:35.506Z,0.60
2018-12-30T00:37:04.021Z,0.30
2018-12-30T00:39:32.567Z,0.60
2018-12-30T00:42:01.091Z,0.50
2018-12-30T00:44:29.636Z,0.80
2018-12-30T00:46:58.161Z,0.70
2018-12-30T00:49:27.017Z,0.70
2018-12-30T00:51:55.529Z,0.70
2018-12-30T00:54:24.049Z,1.00
2018-12-30T00:56:52.593Z,0.90
2018-12-30T00:59:21.109Z,0.90
2018-12-30T01:01:49.719Z,0.90
2018-12-30T01:04:18.432Z,0.50
2018-12-30T01:06:47.019Z,1.20
2018-12-30T01:09:15.511Z,0.80
2018-12-30T01:11:44.049Z,0.80
2018-12-30T01:19:08.971Z,0.90
2018-12-30T01:21:37.597Z,0.90
2018-12-30T01:24:06.126Z,1.10
2018-12-30T01:29:02.872Z,1.20
2018-12-30T01:31:31.411Z,1.20
2018-12-30T01:34:00.002Z,0.90
2018-12-30T01:36:28.539Z,1.10
2018-12-30T01:38:57.055Z,1.10
2018-12-30T01:41:25.599Z,1.30
2018-12-30T01:43:54.112Z,0.90
2018-12-30T01:46:22.659Z,1.10
2018-12-30T01:48:51.181Z,1.30
2018-12-30T01:51:19.727Z,1.80
2018-12-30T01:53:48.242Z,1.00
2018-12-30T01:56:16.759Z,1.30
2018-12-30T01:58:45.499Z,1.40
2018-12-30T02:01:14.033Z,1.40
2018-12-30T02:03:42.578Z,1.50
2018-12-30T02:06:11.467Z,1.50
2018-12-30T02:08:40.011Z,1.60
2018-12-30T02:11:08.535Z,1.70
2018-12-30T02:13:37.069Z,1.60
2018-12-30T02:16:05.590Z,1.90
2018-12-30T02:18:34.127Z,1.70
2018-12-30T02:21:02.654Z,1.80
2018-12-30T02:23:31.438Z,1.70
2018-12-30T02:25:59.949Z,1.80
2018-12-30T02:28:28.475Z,1.80
2018-12-30T02:30:57.030Z,1.90
2018-12-30T02:33:25.546Z,1.90
2018-12-30T02:35:54.083Z,1.80
2018-12-30T02:38:22.609Z,1.90
2018-12-30T02:40:51.168Z,2.00
2018-12-30T02:43:19.676Z,2.00
2018-12-30T02:45:48.208Z,1.70
2018-12-30T02:48:16.726Z,2.20
2018-12-30T02:50:45.467Z,2.10
2018-12-30T02:53:13.993Z,2.10
2018-12-30T02:55:42.457Z,2.10
2018-12-30T02:58:10.987Z,2.00
2018-12-30T03:00:39.531Z,2.20
2018-12-30T03:03:08.249Z,2.20
2018-12-30T03:05:36.695Z,2.20
2018-12-30T03:08:05.159Z,2.10
2018-12-30T03:10:33.603Z,2.20
2018-12-30T03:13:02.140Z,2.00
2018-12-30T03:15:30.588Z,2.20
2018-12-30T03:17:59.062Z,2.20
2018-12-30T03:20:27.574Z,2.20
2018-12-30T03:22:56.052Z,2.20
2018-12-30T03:25:24.502Z,2.20
2018-12-30T03:27:52.953Z,2.30
2018-12-30T03:32:49.605Z,2.40
2018-12-30T03:35:18.070Z,2.30
2018-12-30T03:37:46.568Z,2.40
2018-12-30T03:40:15.057Z,2.40
2018-12-30T03:42:43.519Z,2.40
2018-12-30T03:45:12.058Z,2.30
2018-12-30T03:47:40.568Z,2.40
2018-12-30T03:50:09.036Z,2.40
2018-12-30T03:52:37.472Z,2.30
2018-12-30T03:55:05.997Z,2.40
2018-12-30T03:57:34.442Z,2.40
2018-12-30T04:00:02.908Z,2.40
2018-12-30T04:02:31.366Z,2.50
2018-12-30T04:04:59.841Z,2.50
2018-12-30T04:07:28.344Z,2.40
2018-12-30T04:09:56.802Z,2.50
2018-12-30T04:12:25.252Z,2.40
2018-12-30T04:14:53.722Z,2.40
2018-12-30T04:17:22.232Z,2.40
2018-12-30T04:19:50.946Z,2.50
2018-12-30T04:22:19.387Z,2.30
2018-12-30T04:24:47.837Z,2.50
2018-12-30T04:27:16.366Z,2.50
2018-12-30T04:29:44.819Z,2.50
2018-12-30T04:34:41.409Z,2.60
2018-12-30T04:37:09.878Z,2.50
2018-12-30T04:42:06.462Z,2.50
2018-12-30T04:44:34.902Z,2.50
2018-12-30T04:47:03.367Z,2.50
2018-12-30T04:49:31.815Z,2.60
2018-12-30T04:52:00.284Z,2.00
2018-12-30T04:54:28.731Z,2.60
2018-12-30T04:56:57.205Z,2.30
2018-12-30T04:59:25.663Z,2.60
2018-12-30T05:01:54.170Z,2.60
2018-12-30T05:04:22.640Z,2.60
2018-12-30T05:06:51.085Z,2.60
2018-12-30T05:09:19.555Z,2.60
2018-12-30T05:11:48.078Z,2.60
2018-12-30T05:14:16.545Z,2.60
2018-12-30T05:16:45.070Z,2.60
2018-12-30T05:19:13.544Z,2.60
2018-12-30T05:21:41.976Z,2.60
2018-12-30T05:24:10.440Z,2.70
2018-12-30T05:26:38.883Z,2.70
2018-12-30T05:29:07.357Z,3.00
2018-12-30T05:31:35.804Z,2.70
2018-12-30T05:34:04.251Z,3.20
2018-12-30T05:36:32.713Z,2.50
2018-12-30T05:39:01.160Z,2.60
2018-12-30T05:41:29.621Z,2.70
2018-12-30T05:43:58.065Z,2.70
2018-12-30T05:46:26.520Z,2.70
2018-12-30T05:48:54.985Z,2.60
2018-12-30T05:51:23.438Z,2.70
2018-12-30T05:53:51.970Z,2.70
2018-12-30T05:56:20.416Z,2.80
2018-12-30T05:58:48.878Z,2.70
2018-12-30T06:01:17.391Z,2.70
2018-12-30T06:03:45.863Z,2.70
2018-12-30T06:06:14.312Z,2.70
2018-12-30T06:08:42.776Z,2.70
2018-12-30T06:11:11.213Z,2.90
2018-12-30T06:13:39.689Z,2.70
2018-12-30T06:16:08.129Z,2.90
2018-12-30T06:18:36.576Z,2.80
2018-12-30T06:21:05.036Z,2.30
2018-12-30T06:23:33.509Z,2.70
2018-12-30T06:26:01.970Z,2.80
2018-12-30T06:28:30.421Z,2.80
2018-12-30T06:30:58.891Z,2.80
2018-12-30T06:33:27.328Z,2.90
2018-12-30T06:35:55.798Z,2.60
2018-12-30T06:38:24.258Z,2.80
2018-12-30T06:40:52.722Z,2.90
2018-12-30T06:43:21.162Z,2.80
2018-12-30T06:45:49.613Z,2.80
2018-12-30T06:48:18.062Z,2.90
2018-12-30T06:50:46.578Z,2.60
2018-12-30T06:53:15.049Z,2.70
2018-12-30T06:55:43.698Z,2.70
2018-12-30T06:58:12.163Z,3.30
2018-12-30T07:00:40.610Z,3.00
2018-12-30T07:03:09.082Z,2.60
2018-12-30T07:05:37.535Z,2.30
2018-12-30T07:10:34.108Z,2.70
2018-12-30T07:13:02.662Z,2.60
2018-12-30T07:15:31.106Z,2.50
2018-12-30T07:17:59.571Z,2.60
2018-12-30T07:20:28.027Z,2.60
2018-12-30T07:22:56.469Z,2.70
2018-12-30T07:25:24.931Z,2.60
2018-12-30T07:27:53.381Z,3.00
2018-12-30T07:30:21.841Z,2.70
2018-12-30T07:32:50.280Z,2.70
2018-12-30T07:35:18.740Z,2.60
2018-12-30T07:37:47.290Z,2.80
2018-12-30T07:40:15.834Z,2.60
2018-12-30T07:42:44.280Z,2.80
2018-12-30T07:45:12.765Z,2.80
2018-12-30T07:47:41.219Z,2.70
2018-12-30T07:50:09.736Z,2.60
2018-12-30T07:52:38.277Z,3.10
2018-12-30T07:55:06.865Z,2.80
2018-12-30T07:57:35.333Z,2.60
2018-12-30T08:00:05.083Z,2.80
2018-12-30T08:02:33.545Z,2.80
2018-12-30T08:05:01.995Z,2.90
2018-12-30T08:07:30.457Z,3.30
2018-12-30T08:09:58.909Z,2.70
2018-12-30T08:12:27.377Z,2.90
2018-12-30T08:14:55.827Z,3.40
2018-12-30T08:17:24.273Z,2.80
2018-12-30T08:19:52.732Z,2.80
2018-12-30T08:22:21.172Z,2.90
2018-12-30T08:24:49.655Z,3.60
2018-12-30T08:27:18.168Z,2.90
2018-12-30T08:29:46.653Z,2.90
2018-12-30T08:32:15.159Z,2.70
2018-12-30T08:34:43.644Z,2.90
2018-12-30T08:37:12.247Z,2.90
2018-12-30T08:39:40.756Z,2.90
2018-12-30T08:42:09.224Z,2.90
2018-12-30T08:44:37.690Z,3.00
2018-12-30T08:47:06.221Z,2.90
2018-12-30T08:49:34.670Z,3.00
2018-12-30T08:52:03.140Z,3.40
2018-12-30T08:54:31.581Z,3.00
2018-12-30T08:57:00.048Z,3.00
2018-12-30T08:59:28.505Z,2.90
2018-12-30T09:01:56.966Z,3.00
2018-12-30T09:04:25.412Z,3.00
2018-12-30T09:06:53.886Z,3.00
2018-12-30T09:09:22.342Z,3.10
2018-12-30T09:11:50.793Z,3.10
2018-12-30T09:14:19.269Z,3.20
2018-12-30T09:16:47.713Z,3.30
2018-12-30T09:19:16.173Z,3.40
2018-12-30T09:21:44.611Z,3.40
2018-12-30T09:24:13.077Z,3.30
2018-12-30T09:26:41.538Z,3.40
2018-12-30T09:29:10.006Z,3.60
2018-12-30T09:31:38.473Z,3.40
2018-12-30T09:34:07.014Z,3.40
2018-12-30T09:36:35.521Z,3.50
2018-12-30T09:39:05.694Z,3.10
2018-12-30T09:41:34.137Z,3.50
2018-12-30T09:44:02.667Z,3.50
2018-12-30T09:46:31.129Z,3.60
2018-12-30T09:48:59.585Z,3.60
2018-12-30T09:51:28.067Z,3.40
2018-12-30T09:53:56.503Z,3.50
2018-12-30T09:56:24.974Z,3.60
2018-12-30T09:58:53.427Z,3.70
2018-12-30T10:01:21.902Z,3.70
2018-12-30T10:03:50.375Z,3.50
2018-12-30T10:06:18.915Z,3.80
2018-12-30T10:08:47.407Z,3.80
2018-12-30T10:11:15.929Z,3.80
2018-12-30T10:13:44.461Z,3.80
2018-12-30T10:16:12.930Z,3.90
2018-12-30T10:18:41.488Z,4.00
2018-12-30T10:21:09.996Z,3.70
2018-12-30T10:23:38.489Z,3.90
2018-12-30T10:26:06.940Z,3.80
2018-12-30T10:28:35.498Z,3.80
2018-12-30T10:31:05.670Z,3.20
2018-12-30T10:33:34.242Z,3.80
2018-12-30T10:36:02.697Z,3.80
2018-12-30T10:38:32.634Z,3.70
2018-12-30T10:41:01.194Z,3.80
2018-12-30T10:43:29.735Z,3.60
2018-12-30T10:45:58.314Z,3.70
2018-12-30T10:48:26.860Z,3.90
2018-12-30T10:50:55.411Z,3.90
2018-12-30T10:53:24.025Z,3.90
2018-12-30T10:55:52.589Z,3.90
2018-12-30T10:58:21.168Z,4.10
2018-12-30T11:00:49.768Z,3.80
2018-12-30T11:03:18.740Z,4.00
2018-12-30T11:05:47.372Z,4.00
2018-12-30T11:08:16.644Z,4.00
2018-12-30T11:10:45.226Z,4.00
2018-12-30T11:13:13.751Z,3.80
2018-12-30T11:15:42.246Z,3.90
2018-12-30T11:18:10.846Z,3.90
2018-12-30T11:20:39.321Z,4.20
2018-12-30T11:23:09.448Z,4.00
2018-12-30T11:25:37.984Z,4.00
2018-12-30T11:28:06.870Z,4.30
2018-12-30T11:30:35.484Z,4.20
2018-12-30T11:33:05.565Z,4.20
2018-12-30T11:35:34.116Z,4.40
2018-12-30T11:40:31.014Z,4.20
2018-12-30T11:42:59.518Z,4.00
2018-12-30T11:45:27.988Z,4.20
2018-12-30T11:47:56.478Z,4.20
2018-12-30T11:50:25.018Z,4.20
2018-12-30T11:52:53.490Z,4.20
2018-12-30T11:55:22.176Z,4.10
2018-12-30T11:57:50.735Z,4.20
2018-12-30T12:00:21.020Z,4.20
2018-12-30T12:02:49.540Z,4.30
2018-12-30T12:05:18.010Z,4.10
2018-12-30T12:10:14.599Z,4.40
2018-12-30T12:12:48.811Z,4.20
2018-12-30T12:15:14.035Z,4.10
2018-12-30T12:17:42.620Z,4.20
2018-12-30T12:20:12.062Z,4.10
2018-12-30T12:22:40.660Z,3.80
2018-12-30T12:25:09.258Z,4.30
2018-12-30T12:27:37.734Z,3.80
2018-12-30T12:30:07.328Z,4.10
2018-12-30T12:32:35.875Z,3.90
2018-12-30T12:35:04.603Z,4.00
2018-12-30T12:37:34.217Z,4.50
2018-12-30T12:40:02.786Z,3.80
2018-12-30T12:42:32.258Z,4.00
2018-12-30T12:45:00.821Z,4.10
2018-12-30T12:47:29.372Z,3.90
2018-12-30T12:49:57.952Z,4.10
2018-12-30T12:52:26.512Z,4.10
2018-12-30T12:54:55.061Z,4.00
2018-12-30T12:57:23.624Z,4.10
2018-12-30T12:59:52.136Z,4.30
2018-12-30T13:02:20.747Z,3.80
2018-12-30T13:04:49.237Z,4.10
2018-12-30T13:07:19.630Z,4.30
2018-12-30T13:09:49.237Z,4.40
2018-12-30T13:12:17.806Z,4.00
2018-12-30T13:14:46.271Z,4.10
2018-12-30T13:17:14.782Z,4.30
2018-12-30T13:19:46.164Z,4.40
2018-12-30T13:22:14.793Z,4.20
2018-12-30T13:24:43.280Z,4.40
2018-12-30T13:27:16.847Z,4.20
2018-12-30T13:29:47.199Z,4.00
2018-12-30T13:32:17.159Z,4.30
2018-12-30T13:34:45.745Z,4.40
2018-12-30T13:37:14.301Z,4.40
2018-12-30T13:39:42.863Z,4.40
2018-12-30T13:42:11.393Z,4.30
2018-12-30T13:44:39.906Z,4.40
2018-12-30T13:47:08.459Z,4.90
2018-12-30T13:49:38.072Z,4.30
2018-12-30T13:52:08.854Z,4.80
2018-12-30T13:54:37.399Z,4.30
2018-12-30T13:57:07.083Z,4.70
2018-12-30T13:59:37.254Z,4.50
2018-12-30T14:02:05.838Z,4.50
2018-12-30T14:04:34.632Z,4.30
2018-12-30T14:07:05.681Z,4.50
2018-12-30T14:09:35.507Z,4.50
2018-12-30T14:12:04.315Z,4.50
2018-12-30T14:17:03.617Z,4.40
2018-12-30T14:19:34.582Z,4.50
2018-12-30T14:22:03.170Z,4.60
2018-12-30T14:24:32.756Z,4.40
2018-12-30T14:27:01.543Z,4.60
2018-12-30T14:29:31.631Z,4.50
2018-12-30T14:34:29.998Z,4.50
2018-12-30T14:36:58.534Z,4.40
2018-12-30T14:41:55.177Z,4.50
2018-12-30T14:44:23.747Z,4.30
2018-12-30T14:46:52.432Z,4.40
2018-12-30T14:54:19.132Z,4.30
2018-12-30T14:56:47.956Z,4.70
2018-12-30T14:59:16.513Z,4.50
2018-12-30T15:01:45.934Z,4.60
2018-12-30T15:04:16.977Z,4.10
2018-12-30T15:06:45.550Z,4.60
2018-12-30T15:09:14.100Z,4.90
2018-12-30T15:11:42.673Z,4.70
2018-12-30T15:14:13.022Z,4.50
2018-12-30T15:16:41.610Z,4.60
2018-12-30T15:19:11.548Z,4.60
2018-12-30T15:21:40.389Z,4.60
2018-12-30T15:26:38.708Z,4.70
2018-12-30T15:29:08.135Z,4.50
2018-12-30T15:31:36.736Z,4.10
2018-12-30T15:34:05.235Z,4.60
2018-12-30T15:36:33.755Z,4.40
2018-12-30T15:41:30.637Z,4.70
2018-12-30T15:46:27.466Z,4.90
2018-12-30T15:48:56.388Z,4.70
2018-12-30T15:51:24.925Z,4.60
2018-12-30T15:53:53.500Z,4.50
2018-12-30T15:56:23.087Z,4.50
2018-12-30T15:58:51.636Z,4.40
2018-12-30T16:01:20.202Z,4.60
2018-12-30T16:03:48.766Z,4.60
2018-12-30T16:06:17.332Z,4.70
2018-12-30T16:08:46.046Z,4.70
2018-12-30T16:11:14.604Z,4.40
2018-12-30T16:13:43.138Z,4.60
2018-12-30T16:19:39.038Z,4.90
2018-12-30T16:22:07.622Z,4.40
2018-12-30T16:24:36.174Z,4.10
2018-12-30T16:27:04.692Z,4.60
2018-12-30T16:29:33.198Z,4.60
2018-12-30T16:32:01.788Z,4.60
2018-12-30T16:34:30.362Z,4.10
2018-12-30T16:37:01.897Z,4.70
2018-12-30T16:39:30.445Z,4.50
2018-12-30T16:42:00.588Z,4.50
2018-12-30T16:46:58.923Z,4.00
2018-12-30T16:54:27.065Z,4.60
2018-12-30T16:59:25.307Z,4.50
2018-12-30T17:04:24.078Z,4.70
2018-12-30T17:06:53.997Z,4.50
2018-12-30T17:09:26.698Z,4.50
2018-12-30T17:11:55.494Z,4.50
2018-12-30T17:14:27.115Z,4.30
2018-12-30T17:16:56.686Z,4.50
2018-12-30T17:19:25.245Z,4.60
2018-12-30T17:21:55.077Z,4.30
2018-12-30T17:24:23.641Z,4.30
2018-12-30T17:26:52.218Z,4.50
2018-12-30T17:29:20.798Z,4.30
2018-12-30T17:31:49.333Z,4.20
2018-12-30T17:34:18.808Z,4.60
2018-12-30T17:36:47.300Z,4.80
2018-12-30T17:39:15.841Z,4.70
2018-12-30T17:41:44.428Z,4.80
2018-12-30T17:44:12.970Z,4.20
2018-12-30T17:46:41.468Z,4.60
2018-12-30T17:49:09.947Z,4.30
2018-12-30T17:51:38.511Z,4.40
2018-12-30T17:54:15.016Z,4.20
2018-12-30T17:56:37.668Z,3.80
2018-12-30T17:59:07.446Z,4.40
2018-12-30T18:01:35.977Z,4.20
2018-12-30T18:04:04.627Z,4.40
2018-12-30T18:09:06.284Z,4.20
2018-12-30T18:11:34.830Z,4.40
2018-12-30T18:14:03.427Z,4.00
2018-12-30T18:16:33.766Z,5.40
2018-12-30T18:21:32.860Z,4.50
2018-12-30T18:24:01.335Z,4.40
2018-12-30T18:26:37.584Z,4.80
2018-12-30T18:29:00.382Z,4.40
2018-12-30T18:33:58.411Z,4.30
2018-12-30T18:36:28.068Z,4.20
2018-12-30T18:38:56.649Z,4.30
2018-12-30T18:41:25.179Z,4.30
2018-12-30T18:43:54.930Z,4.30
2018-12-30T18:48:52.558Z,4.20
2018-12-30T18:51:21.196Z,4.20
2018-12-30T18:53:50.005Z,4.10
2018-12-30T18:56:20.091Z,4.10
2018-12-30T18:58:48.653Z,4.10
2018-12-30T19:01:17.215Z,4.10
2018-12-30T19:03:47.401Z,3.80
2018-12-30T19:06:18.720Z,4.00
2018-12-30T19:08:47.496Z,4.70
2018-12-30T19:11:26.400Z,4.70
2018-12-30T19:16:28.160Z,4.30
2018-12-30T19:18:58.570Z,4.20
2018-12-30T19:21:28.141Z,4.40
2018-12-30T19:23:57.277Z,4.30
2018-12-30T19:26:28.989Z,4.00
2018-12-30T19:28:57.305Z,4.30
2018-12-30T19:31:28.421Z,4.20
2018-12-30T19:38:59.629Z,4.50
2018-12-30T19:41:29.780Z,3.80
2018-12-30T19:43:58.374Z,4.30
2018-12-30T19:46:27.777Z,4.40
2018-12-30T19:51:27.659Z,4.30
2018-12-30T19:56:27.392Z,4.40
2018-12-30T19:58:55.861Z,4.20
2018-12-30T20:01:24.507Z,4.40
2018-12-30T20:03:55.753Z,4.40
2018-12-30T20:06:24.897Z,4.50
2018-12-30T20:08:56.442Z,4.50
2018-12-30T20:11:26.058Z,4.40
2018-12-30T20:13:54.575Z,4.40
2018-12-30T20:16:23.357Z,4.20
2018-12-30T20:18:53.271Z,4.50
2018-12-30T20:21:25.947Z,4.70
2018-12-30T20:23:54.657Z,4.40
2018-12-30T20:26:29.832Z,4.60
2018-12-30T20:31:26.556Z,4.40
2018-12-30T20:33:57.679Z,4.50
2018-12-30T20:36:26.220Z,4.60
2018-12-30T20:38:54.897Z,4.50
2018-12-30T20:41:28.020Z,4.60
2018-12-30T20:43:57.359Z,4.90
2018-12-30T20:46:28.993Z,4.70
2018-12-30T20:48:58.942Z,4.60
2018-12-30T20:51:28.601Z,4.80
2018-12-30T20:53:58.499Z,4.80
2018-12-30T20:56:28.051Z,4.60
2018-12-30T20:58:58.131Z,4.80
2018-12-30T21:01:28.491Z,4.40
2018-12-30T21:03:57.044Z,4.70
2018-12-30T21:08:56.779Z,4.80
2018-12-30T21:11:25.358Z,4.80
2018-12-30T21:13:54.173Z,4.90
2018-12-30T21:18:50.968Z,4.90
2018-12-30T21:21:19.459Z,4.70
2018-12-30T21:26:20.568Z,4.60
2018-12-30T21:33:45.791Z,4.90
2018-12-30T21:36:16.042Z,5.00
2018-12-30T21:38:45.381Z,5.10
2018-12-30T21:41:16.756Z,4.70
2018-12-30T21:43:47.844Z,4.40
2018-12-30T21:46:16.731Z,4.70
2018-12-30T21:48:45.890Z,5.00
2018-12-30T21:51:15.803Z,4.60
2018-12-30T21:56:16.018Z,4.60
2018-12-30T21:58:48.842Z,5.10
2018-12-30T22:01:17.410Z,4.90
2018-12-30T22:06:14.698Z,4.70
2018-12-30T22:08:43.842Z,4.60
2018-12-30T22:11:14.870Z,4.60
2018-12-30T22:13:43.422Z,4.80
2018-12-30T22:16:12.906Z,4.70
2018-12-30T22:18:42.398Z,4.80
2018-12-30T22:23:39.508Z,4.60
2018-12-30T22:26:09.472Z,4.80
2018-12-30T22:28:39.872Z,4.70
2018-12-30T22:33:36.310Z,5.20
2018-12-30T22:38:36.327Z,4.60
2018-12-30T22:43:33.461Z,4.50
2018-12-30T22:46:07.986Z,4.70
2018-12-30T22:48:33.915Z,4.80
2018-12-30T22:51:05.051Z,5.00
2018-12-30T22:53:35.151Z,4.70
2018-12-30T22:58:33.392Z,4.70
2018-12-30T23:01:03.644Z,4.60
2018-12-30T23:03:33.101Z,4.50
2018-12-30T23:06:01.670Z,4.60
2018-12-30T23:08:30.138Z,4.70
2018-12-30T23:11:00.253Z,4.70
2018-12-30T23:13:28.767Z,5.30
2018-12-30T23:15:57.227Z,4.40
2018-12-30T23:23:23.624Z,4.50
2018-12-30T23:25:52.144Z,4.70
2018-12-30T23:28:20.629Z,4.30
2018-12-30T23:30:50.477Z,4.70
2018-12-30T23:35:47.265Z,4.40
2018-12-30T23:38:15.805Z,4.50
2018-12-30T23:40:44.311Z,4.40
2018-12-30T23:43:12.785Z,4.50
2018-12-30T23:45:41.346Z,4.50
2018-12-30T23:48:09.808Z,4.30
2018-12-30T23:50:38.299Z,4.50
2018-12-30T23:53:08.365Z,4.40
2018-12-30T23:55:36.853Z,4.60
2018-12-30T23:58:05.463Z,4.40
